Smithville, New Jersey
Current Conditions -  °F | °C
As of 7:54 AM on Saturday 25 Oct 2014 (Local Time) from KACY Reporting Station
Clear Clear  
Wind Chill: 43°   Ceiling: Unl
Heat Index: 43°   Visibility: 10mi
Dew Point: 39°   Wind: 3mph
Humidity: 86%   Direction: 290°WNW
Pressure: 29.91"   Gusts: NA
Location:  39.4315°N, 74.5003°W
Report Text: KACY 251154Z 29003KT 10SM CLR 06/04 A2991 RMK AO2 SLP129 T00610039 10089 20044 53004
Loading
Personal Weather Stations






























Interactive Weather Map
Tropical Storm Tracking
New forecast layout! Learn more

10-Day Weather Forecast

Advertisements
Track Severe Weather on mobile